sensor_id;sensor_type;location;lat;lon;timestamp;pressure;altitude;pressure_sealevel;temperature
15062;BMP180;7630;50.306;8.566;2022-09-17T00:01:23;97330.00;;;10.60
15062;BMP180;7630;50.306;8.566;2022-09-17T00:05:26;97341.00;;;10.50
15062;BMP180;7630;50.306;8.566;2022-09-17T00:09:27;97337.00;;;10.50
15062;BMP180;7630;50.306;8.566;2022-09-17T00:13:28;97338.00;;;10.40
15062;BMP180;7630;50.306;8.566;2022-09-17T00:17:29;97335.00;;;10.10
15062;BMP180;7630;50.306;8.566;2022-09-17T00:21:31;97338.00;;;10.10
15062;BMP180;7630;50.306;8.566;2022-09-17T00:25:32;97340.00;;;10.30
15062;BMP180;7630;50.306;8.566;2022-09-17T00:29:33;97338.00;;;10.30
15062;BMP180;7630;50.306;8.566;2022-09-17T00:33:34;97333.00;;;10.70
15062;BMP180;7630;50.306;8.566;2022-09-17T00:37:36;97335.00;;;10.30
15062;BMP180;7630;50.306;8.566;2022-09-17T00:41:37;97338.00;;;10.30
15062;BMP180;7630;50.306;8.566;2022-09-17T00:45:39;97353.00;;;10.60
15062;BMP180;7630;50.306;8.566;2022-09-17T00:49:41;97346.00;;;10.90
15062;BMP180;7630;50.306;8.566;2022-09-17T00:53:42;97357.00;;;11.40
15062;BMP180;7630;50.306;8.566;2022-09-17T00:57:44;97341.00;;;11.20
15062;BMP180;7630;50.306;8.566;2022-09-17T01:01:45;97342.00;;;10.60
15062;BMP180;7630;50.306;8.566;2022-09-17T01:06:03;97355.00;;;11.30
15062;BMP180;7630;50.306;8.566;2022-09-17T01:10:15;97351.00;;;11.00
15062;BMP180;7630;50.306;8.566;2022-09-17T01:14:35;97349.00;;;10.60
15062;BMP180;7630;50.306;8.566;2022-09-17T01:32:02;97350.00;;;10.40
15062;BMP180;7630;50.306;8.566;2022-09-17T01:40:34;97356.00;;;10.50
15062;BMP180;7630;50.306;8.566;2022-09-17T01:48:48;97361.00;;;10.90
15062;BMP180;7630;50.306;8.566;2022-09-17T01:52:52;97368.00;;;10.20
15062;BMP180;7630;50.306;8.566;2022-09-17T01:57:11;97371.00;;;11.00
15062;BMP180;7630;50.306;8.566;2022-09-17T02:01:12;97369.00;;;10.80
15062;BMP180;7630;50.306;8.566;2022-09-17T02:05:22;97366.00;;;10.90
15062;BMP180;7630;50.306;8.566;2022-09-17T02:09:26;97365.00;;;11.10
15062;BMP180;7630;50.306;8.566;2022-09-17T02:13:36;97374.00;;;11.30
15062;BMP180;7630;50.306;8.566;2022-09-17T02:17:51;97372.00;;;10.50
15062;BMP180;7630;50.306;8.566;2022-09-17T02:22:51;97369.00;;;9.90
15062;BMP180;7630;50.306;8.566;2022-09-17T02:26:10;97359.00;;;10.30
15062;BMP180;7630;50.306;8.566;2022-09-17T02:30:13;97365.00;;;11.10
15062;BMP180;7630;50.306;8.566;2022-09-17T02:34:20;97370.00;;;10.90
15062;BMP180;7630;50.306;8.566;2022-09-17T02:38:25;97369.00;;;10.00
15062;BMP180;7630;50.306;8.566;2022-09-17T02:59:36;97373.00;;;9.80
15062;BMP180;7630;50.306;8.566;2022-09-17T03:03:40;97376.00;;;10.20
15062;BMP180;7630;50.306;8.566;2022-09-17T03:07:42;97366.00;;;10.10
15062;BMP180;7630;50.306;8.566;2022-09-17T03:11:43;97368.00;;;9.80
15062;BMP180;7630;50.306;8.566;2022-09-17T03:15:44;97367.00;;;10.30
15062;BMP180;7630;50.306;8.566;2022-09-17T03:19:45;97374.00;;;10.50
15062;BMP180;7630;50.306;8.566;2022-09-17T03:23:46;97366.00;;;10.40
15062;BMP180;7630;50.306;8.566;2022-09-17T03:27:47;97369.00;;;10.30
15062;BMP180;7630;50.306;8.566;2022-09-17T03:31:48;97362.00;;;9.70
15062;BMP180;7630;50.306;8.566;2022-09-17T03:35:49;97363.00;;;9.90
15062;BMP180;7630;50.306;8.566;2022-09-17T03:39:50;97361.00;;;10.30
15062;BMP180;7630;50.306;8.566;2022-09-17T03:43:52;97369.00;;;10.30
15062;BMP180;7630;50.306;8.566;2022-09-17T03:47:53;97370.00;;;9.80
15062;BMP180;7630;50.306;8.566;2022-09-17T03:51:54;97378.00;;;9.90
15062;BMP180;7630;50.306;8.566;2022-09-17T03:55:57;97373.00;;;10.90
15062;BMP180;7630;50.306;8.566;2022-09-17T03:59:59;97388.00;;;11.00
15062;BMP180;7630;50.306;8.566;2022-09-17T04:04:01;97386.00;;;10.70
15062;BMP180;7630;50.306;8.566;2022-09-17T04:08:03;97403.00;;;11.30
15062;BMP180;7630;50.306;8.566;2022-09-17T04:12:04;97398.00;;;10.60
15062;BMP180;7630;50.306;8.566;2022-09-17T04:16:06;97402.00;;;11.10
15062;BMP180;7630;50.306;8.566;2022-09-17T04:20:11;97405.00;;;11.00
15062;BMP180;7630;50.306;8.566;2022-09-17T04:24:11;97407.00;;;11.10
15062;BMP180;7630;50.306;8.566;2022-09-17T04:28:12;97411.00;;;10.00
15062;BMP180;7630;50.306;8.566;2022-09-17T04:32:13;97411.00;;;10.50
15062;BMP180;7630;50.306;8.566;2022-09-17T04:36:14;97411.00;;;10.70
15062;BMP180;7630;50.306;8.566;2022-09-17T04:40:15;97425.00;;;11.00
15062;BMP180;7630;50.306;8.566;2022-09-17T04:44:16;97426.00;;;11.10
15062;BMP180;7630;50.306;8.566;2022-09-17T04:48:17;97428.00;;;10.50
15062;BMP180;7630;50.306;8.566;2022-09-17T04:52:18;97423.00;;;9.90
15062;BMP180;7630;50.306;8.566;2022-09-17T04:56:19;97424.00;;;9.90
15062;BMP180;7630;50.306;8.566;2022-09-17T05:00:21;97420.00;;;10.50
15062;BMP180;7630;50.306;8.566;2022-09-17T05:04:23;97425.00;;;10.20
15062;BMP180;7630;50.306;8.566;2022-09-17T05:08:24;97429.00;;;10.60
15062;BMP180;7630;50.306;8.566;2022-09-17T05:12:25;97430.00;;;10.40
15062;BMP180;7630;50.306;8.566;2022-09-17T05:16:26;97431.00;;;10.50
15062;BMP180;7630;50.306;8.566;2022-09-17T05:20:27;97444.00;;;10.60
15062;BMP180;7630;50.306;8.566;2022-09-17T05:24:28;97449.00;;;9.90
15062;BMP180;7630;50.306;8.566;2022-09-17T05:28:29;97448.00;;;10.70
15062;BMP180;7630;50.306;8.566;2022-09-17T05:32:30;97455.00;;;10.90
15062;BMP180;7630;50.306;8.566;2022-09-17T05:36:31;97443.00;;;10.90
15062;BMP180;7630;50.306;8.566;2022-09-17T05:40:32;97452.00;;;10.60
15062;BMP180;7630;50.306;8.566;2022-09-17T05:44:33;97439.00;;;11.10
15062;BMP180;7630;50.306;8.566;2022-09-17T05:48:34;97443.00;;;11.00
15062;BMP180;7630;50.306;8.566;2022-09-17T05:52:35;97454.00;;;11.50
15062;BMP180;7630;50.306;8.566;2022-09-17T05:56:37;97447.00;;;10.90
15062;BMP180;7630;50.306;8.566;2022-09-17T06:00:46;97460.00;;;11.10
15062;BMP180;7630;50.306;8.566;2022-09-17T06:04:47;97461.00;;;10.90
15062;BMP180;7630;50.306;8.566;2022-09-17T06:08:48;97471.00;;;10.20
15062;BMP180;7630;50.306;8.566;2022-09-17T06:12:54;97467.00;;;10.70
15062;BMP180;7630;50.306;8.566;2022-09-17T06:16:56;97457.00;;;10.70
15062;BMP180;7630;50.306;8.566;2022-09-17T06:20:59;97473.00;;;10.80
15062;BMP180;7630;50.306;8.566;2022-09-17T06:25:00;97475.00;;;10.60
15062;BMP180;7630;50.306;8.566;2022-09-17T06:29:02;97465.00;;;10.70
15062;BMP180;7630;50.306;8.566;2022-09-17T06:33:03;97472.00;;;11.20
15062;BMP180;7630;50.306;8.566;2022-09-17T06:37:04;97476.00;;;11.10
15062;BMP180;7630;50.306;8.566;2022-09-17T06:41:06;97480.00;;;11.30
15062;BMP180;7630;50.306;8.566;2022-09-17T06:45:07;97487.00;;;11.70
15062;BMP180;7630;50.306;8.566;2022-09-17T06:49:10;97489.00;;;11.80
15062;BMP180;7630;50.306;8.566;2022-09-17T06:53:11;97481.00;;;11.80
15062;BMP180;7630;50.306;8.566;2022-09-17T06:57:12;97486.00;;;11.80
15062;BMP180;7630;50.306;8.566;2022-09-17T07:01:13;97491.00;;;12.60
15062;BMP180;7630;50.306;8.566;2022-09-17T07:05:14;97486.00;;;11.80
15062;BMP180;7630;50.306;8.566;2022-09-17T07:09:15;97491.00;;;12.40
15062;BMP180;7630;50.306;8.566;2022-09-17T07:13:16;97500.00;;;12.80
15062;BMP180;7630;50.306;8.566;2022-09-17T07:17:17;97492.00;;;12.70
15062;BMP180;7630;50.306;8.566;2022-09-17T07:21:18;97495.00;;;13.20
15062;BMP180;7630;50.306;8.566;2022-09-17T07:25:20;97502.00;;;12.60
15062;BMP180;7630;50.306;8.566;2022-09-17T07:29:21;97483.00;;;12.70
15062;BMP180;7630;50.306;8.566;2022-09-17T07:33:25;97494.00;;;12.80
15062;BMP180;7630;50.306;8.566;2022-09-17T07:37:27;97500.00;;;12.20
15062;BMP180;7630;50.306;8.566;2022-09-17T07:41:28;97499.00;;;13.20
15062;BMP180;7630;50.306;8.566;2022-09-17T07:45:29;97498.00;;;13.60
15062;BMP180;7630;50.306;8.566;2022-09-17T07:49:30;97495.00;;;12.70
15062;BMP180;7630;50.306;8.566;2022-09-17T07:53:31;97504.00;;;12.90
15062;BMP180;7630;50.306;8.566;2022-09-17T07:57:34;97518.00;;;12.90
15062;BMP180;7630;50.306;8.566;2022-09-17T08:01:35;97517.00;;;12.80
15062;BMP180;7630;50.306;8.566;2022-09-17T08:05:37;97521.00;;;12.80
15062;BMP180;7630;50.306;8.566;2022-09-17T08:09:38;97519.00;;;13.60
15062;BMP180;7630;50.306;8.566;2022-09-17T08:13:39;97531.00;;;13.30
15062;BMP180;7630;50.306;8.566;2022-09-17T08:17:49;97532.00;;;13.70
15062;BMP180;7630;50.306;8.566;2022-09-17T08:21:46;97527.00;;;13.20
15062;BMP180;7630;50.306;8.566;2022-09-17T08:25:52;97527.00;;;13.50
15062;BMP180;7630;50.306;8.566;2022-09-17T08:29:54;97525.00;;;14.00
15062;BMP180;7630;50.306;8.566;2022-09-17T08:33:55;97528.00;;;13.70
15062;BMP180;7630;50.306;8.566;2022-09-17T08:37:56;97516.00;;;13.30
15062;BMP180;7630;50.306;8.566;2022-09-17T08:42:11;97525.00;;;13.90
15062;BMP180;7630;50.306;8.566;2022-09-17T08:46:13;97510.00;;;13.70
15062;BMP180;7630;50.306;8.566;2022-09-17T08:50:24;97510.00;;;14.60
15062;BMP180;7630;50.306;8.566;2022-09-17T08:58:50;97512.00;;;14.40
15062;BMP180;7630;50.306;8.566;2022-09-17T09:07:12;97529.00;;;14.20
15062;BMP180;7630;50.306;8.566;2022-09-17T09:11:17;97532.00;;;14.00
15062;BMP180;7630;50.306;8.566;2022-09-17T09:15:41;97527.00;;;14.20
15062;BMP180;7630;50.306;8.566;2022-09-17T09:19:44;97528.00;;;14.40
15062;BMP180;7630;50.306;8.566;2022-09-17T09:23:52;97531.00;;;15.50
15062;BMP180;7630;50.306;8.566;2022-09-17T09:36:17;97558.00;;;13.40
15062;BMP180;7630;50.306;8.566;2022-09-17T09:44:33;97557.00;;;13.70
15062;BMP180;7630;50.306;8.566;2022-09-17T09:48:45;97558.00;;;13.40
15062;BMP180;7630;50.306;8.566;2022-09-17T09:57:15;97575.00;;;14.00
15062;BMP180;7630;50.306;8.566;2022-09-17T10:01:18;97572.00;;;13.50
15062;BMP180;7630;50.306;8.566;2022-09-17T10:05:20;97577.00;;;13.80
15062;BMP180;7630;50.306;8.566;2022-09-17T10:09:21;97583.00;;;13.00
15062;BMP180;7630;50.306;8.566;2022-09-17T10:13:24;97573.00;;;13.90
15062;BMP180;7630;50.306;8.566;2022-09-17T10:17:25;97570.00;;;12.50
15062;BMP180;7630;50.306;8.566;2022-09-17T10:21:41;97572.00;;;12.80
15062;BMP180;7630;50.306;8.566;2022-09-17T10:25:43;97573.00;;;13.20
15062;BMP180;7630;50.306;8.566;2022-09-17T10:29:46;97562.00;;;13.80
15062;BMP180;7630;50.306;8.566;2022-09-17T10:33:57;97547.00;;;14.30
15062;BMP180;7630;50.306;8.566;2022-09-17T10:37:58;97558.00;;;14.90
15062;BMP180;7630;50.306;8.566;2022-09-17T10:42:14;97558.00;;;14.90
15062;BMP180;7630;50.306;8.566;2022-09-17T10:46:24;97551.00;;;14.90
15062;BMP180;7630;50.306;8.566;2022-09-17T10:50:28;97563.00;;;13.70
15062;BMP180;7630;50.306;8.566;2022-09-17T10:59:11;97575.00;;;13.30
15062;BMP180;7630;50.306;8.566;2022-09-17T11:03:35;97576.00;;;13.30
15062;BMP180;7630;50.306;8.566;2022-09-17T11:07:43;97574.00;;;13.90
15062;BMP180;7630;50.306;8.566;2022-09-17T11:41:59;97568.00;;;13.30
15062;BMP180;7630;50.306;8.566;2022-09-17T11:46:12;97566.00;;;14.00
15062;BMP180;7630;50.306;8.566;2022-09-17T11:50:22;97555.00;;;15.50
15062;BMP180;7630;50.306;8.566;2022-09-17T11:54:36;97560.00;;;15.00
15062;BMP180;7630;50.306;8.566;2022-09-17T12:03:17;97554.00;;;15.90
15062;BMP180;7630;50.306;8.566;2022-09-17T12:11:35;97534.00;;;14.80
15062;BMP180;7630;50.306;8.566;2022-09-17T12:15:38;97521.00;;;14.80
15062;BMP180;7630;50.306;8.566;2022-09-17T12:19:44;97533.00;;;15.70
15062;BMP180;7630;50.306;8.566;2022-09-17T12:23:53;97517.00;;;15.90
15062;BMP180;7630;50.306;8.566;2022-09-17T12:27:58;97512.00;;;15.90
15062;BMP180;7630;50.306;8.566;2022-09-17T12:32:19;97504.00;;;16.80
15062;BMP180;7630;50.306;8.566;2022-09-17T12:44:59;97497.00;;;15.80
15062;BMP180;7630;50.306;8.566;2022-09-17T12:49:08;97495.00;;;15.70
15062;BMP180;7630;50.306;8.566;2022-09-17T12:53:28;97492.00;;;16.00
15062;BMP180;7630;50.306;8.566;2022-09-17T13:02:01;97501.00;;;18.20
15062;BMP180;7630;50.306;8.566;2022-09-17T13:15:09;97479.00;;;18.70
15062;BMP180;7630;50.306;8.566;2022-09-17T13:23:34;97474.00;;;17.20
15062;BMP180;7630;50.306;8.566;2022-09-17T13:27:37;97472.00;;;17.30
15062;BMP180;7630;50.306;8.566;2022-09-17T13:35:46;97472.00;;;16.20
15062;BMP180;7630;50.306;8.566;2022-09-17T13:39:49;97463.00;;;15.10
15062;BMP180;7630;50.306;8.566;2022-09-17T13:43:52;97487.00;;;14.10
15062;BMP180;7630;50.306;8.566;2022-09-17T13:48:09;97486.00;;;14.10
15062;BMP180;7630;50.306;8.566;2022-09-17T13:52:12;97522.00;;;14.40
15062;BMP180;7630;50.306;8.566;2022-09-17T13:56:43;97569.00;;;11.30
15062;BMP180;7630;50.306;8.566;2022-09-17T14:05:24;97558.00;;;11.20
15062;BMP180;7630;50.306;8.566;2022-09-17T14:09:31;97550.00;;;11.00
15062;BMP180;7630;50.306;8.566;2022-09-17T14:13:40;97565.00;;;10.70
15062;BMP180;7630;50.306;8.566;2022-09-17T14:17:51;97566.00;;;11.80
15062;BMP180;7630;50.306;8.566;2022-09-17T14:26:14;97542.00;;;12.70
15062;BMP180;7630;50.306;8.566;2022-09-17T14:30:28;97538.00;;;14.70
15062;BMP180;7630;50.306;8.566;2022-09-17T14:34:30;97540.00;;;15.50
15062;BMP180;7630;50.306;8.566;2022-09-17T14:38:44;97530.00;;;15.10
15062;BMP180;7630;50.306;8.566;2022-09-17T14:42:45;97516.00;;;14.80
15062;BMP180;7630;50.306;8.566;2022-09-17T14:46:58;97477.00;;;14.80
15062;BMP180;7630;50.306;8.566;2022-09-17T14:55:24;97515.00;;;15.50
15062;BMP180;7630;50.306;8.566;2022-09-17T15:08:20;97520.00;;;14.20
15062;BMP180;7630;50.306;8.566;2022-09-17T15:12:24;97513.00;;;14.20
15062;BMP180;7630;50.306;8.566;2022-09-17T15:16:27;97516.00;;;13.80
15062;BMP180;7630;50.306;8.566;2022-09-17T15:20:31;97528.00;;;13.70
15062;BMP180;7630;50.306;8.566;2022-09-17T15:28:59;97541.00;;;12.70
15062;BMP180;7630;50.306;8.566;2022-09-17T15:33:01;97533.00;;;12.40
15062;BMP180;7630;50.306;8.566;2022-09-17T15:45:28;97528.00;;;12.40
15062;BMP180;7630;50.306;8.566;2022-09-17T15:53:49;97485.00;;;11.50
15062;BMP180;7630;50.306;8.566;2022-09-17T15:57:47;97484.00;;;10.60
15062;BMP180;7630;50.306;8.566;2022-09-17T16:01:51;97493.00;;;12.10
15062;BMP180;7630;50.306;8.566;2022-09-17T16:05:52;97495.00;;;12.00
15062;BMP180;7630;50.306;8.566;2022-09-17T16:09:55;97498.00;;;12.30
15062;BMP180;7630;50.306;8.566;2022-09-17T16:13:59;97499.00;;;12.40
15062;BMP180;7630;50.306;8.566;2022-09-17T16:18:00;97513.00;;;11.90
15062;BMP180;7630;50.306;8.566;2022-09-17T16:22:01;97527.00;;;11.90
15062;BMP180;7630;50.306;8.566;2022-09-17T16:26:04;97533.00;;;12.90
15062;BMP180;7630;50.306;8.566;2022-09-17T16:30:07;97552.00;;;12.60
15062;BMP180;7630;50.306;8.566;2022-09-17T16:34:09;97548.00;;;12.70
15062;BMP180;7630;50.306;8.566;2022-09-17T16:38:10;97547.00;;;11.90
15062;BMP180;7630;50.306;8.566;2022-09-17T16:42:12;97557.00;;;11.80
15062;BMP180;7630;50.306;8.566;2022-09-17T16:46:13;97556.00;;;12.30
15062;BMP180;7630;50.306;8.566;2022-09-17T16:50:15;97549.00;;;11.00
15062;BMP180;7630;50.306;8.566;2022-09-17T16:54:17;97558.00;;;11.60
15062;BMP180;7630;50.306;8.566;2022-09-17T16:58:18;97566.00;;;11.60
15062;BMP180;7630;50.306;8.566;2022-09-17T17:02:19;97541.00;;;11.80
15062;BMP180;7630;50.306;8.566;2022-09-17T17:06:20;97534.00;;;11.80
15062;BMP180;7630;50.306;8.566;2022-09-17T17:10:22;97533.00;;;10.90
15062;BMP180;7630;50.306;8.566;2022-09-17T17:14:26;97539.00;;;12.20
15062;BMP180;7630;50.306;8.566;2022-09-17T17:18:27;97541.00;;;11.60
15062;BMP180;7630;50.306;8.566;2022-09-17T17:22:28;97539.00;;;12.40
15062;BMP180;7630;50.306;8.566;2022-09-17T17:26:29;97537.00;;;12.00
15062;BMP180;7630;50.306;8.566;2022-09-17T17:30:30;97548.00;;;11.20
15062;BMP180;7630;50.306;8.566;2022-09-17T17:34:34;97557.00;;;11.80
15062;BMP180;7630;50.306;8.566;2022-09-17T17:38:35;97551.00;;;11.10
15062;BMP180;7630;50.306;8.566;2022-09-17T17:42:37;97559.00;;;11.10
15062;BMP180;7630;50.306;8.566;2022-09-17T17:46:40;97547.00;;;11.10
15062;BMP180;7630;50.306;8.566;2022-09-17T17:50:41;97553.00;;;11.70
15062;BMP180;7630;50.306;8.566;2022-09-17T17:54:42;97550.00;;;11.50
15062;BMP180;7630;50.306;8.566;2022-09-17T17:58:43;97556.00;;;11.50
15062;BMP180;7630;50.306;8.566;2022-09-17T18:02:44;97565.00;;;10.80
15062;BMP180;7630;50.306;8.566;2022-09-17T18:06:45;97565.00;;;10.80
15062;BMP180;7630;50.306;8.566;2022-09-17T18:10:55;97567.00;;;10.80
15062;BMP180;7630;50.306;8.566;2022-09-17T18:14:57;97568.00;;;11.20
15062;BMP180;7630;50.306;8.566;2022-09-17T18:18:58;97575.00;;;11.60
15062;BMP180;7630;50.306;8.566;2022-09-17T18:22:59;97590.00;;;11.70
15062;BMP180;7630;50.306;8.566;2022-09-17T18:27:00;97581.00;;;10.80
15062;BMP180;7630;50.306;8.566;2022-09-17T18:31:06;97596.00;;;11.10
15062;BMP180;7630;50.306;8.566;2022-09-17T18:35:07;97599.00;;;11.60
15062;BMP180;7630;50.306;8.566;2022-09-17T18:39:11;97600.00;;;11.60
15062;BMP180;7630;50.306;8.566;2022-09-17T18:43:15;97602.00;;;11.90
15062;BMP180;7630;50.306;8.566;2022-09-17T18:47:16;97612.00;;;12.10
15062;BMP180;7630;50.306;8.566;2022-09-17T18:51:17;97626.00;;;12.10
15062;BMP180;7630;50.306;8.566;2022-09-17T18:55:18;97623.00;;;11.70
15062;BMP180;7630;50.306;8.566;2022-09-17T18:59:20;97621.00;;;10.70
15062;BMP180;7630;50.306;8.566;2022-09-17T19:03:21;97625.00;;;10.80
15062;BMP180;7630;50.306;8.566;2022-09-17T19:07:22;97626.00;;;10.90
15062;BMP180;7630;50.306;8.566;2022-09-17T19:11:23;97640.00;;;11.30
15062;BMP180;7630;50.306;8.566;2022-09-17T19:15:24;97645.00;;;11.70
15062;BMP180;7630;50.306;8.566;2022-09-17T19:19:25;97648.00;;;11.80
15062;BMP180;7630;50.306;8.566;2022-09-17T19:23:27;97639.00;;;10.90
15062;BMP180;7630;50.306;8.566;2022-09-17T19:27:28;97662.00;;;11.00
15062;BMP180;7630;50.306;8.566;2022-09-17T19:31:29;97656.00;;;10.70
15062;BMP180;7630;50.306;8.566;2022-09-17T19:35:30;97660.00;;;11.40
15062;BMP180;7630;50.306;8.566;2022-09-17T19:39:31;97664.00;;;10.70
15062;BMP180;7630;50.306;8.566;2022-09-17T19:43:34;97665.00;;;11.00
15062;BMP180;7630;50.306;8.566;2022-09-17T19:47:35;97666.00;;;11.60
15062;BMP180;7630;50.306;8.566;2022-09-17T19:51:36;97663.00;;;11.00
15062;BMP180;7630;50.306;8.566;2022-09-17T19:55:40;97665.00;;;10.60
15062;BMP180;7630;50.306;8.566;2022-09-17T19:59:42;97660.00;;;11.30
15062;BMP180;7630;50.306;8.566;2022-09-17T20:03:44;97665.00;;;11.10
15062;BMP180;7630;50.306;8.566;2022-09-17T20:07:45;97658.00;;;10.50
15062;BMP180;7630;50.306;8.566;2022-09-17T20:11:47;97655.00;;;10.80
15062;BMP180;7630;50.306;8.566;2022-09-17T20:15:48;97675.00;;;10.30
15062;BMP180;7630;50.306;8.566;2022-09-17T20:19:50;97654.00;;;11.00
15062;BMP180;7630;50.306;8.566;2022-09-17T20:23:51;97653.00;;;10.90
15062;BMP180;7630;50.306;8.566;2022-09-17T20:27:52;97658.00;;;10.90
15062;BMP180;7630;50.306;8.566;2022-09-17T20:31:53;97660.00;;;10.50
15062;BMP180;7630;50.306;8.566;2022-09-17T20:36:03;97666.00;;;11.00
15062;BMP180;7630;50.306;8.566;2022-09-17T20:40:05;97661.00;;;11.80
15062;BMP180;7630;50.306;8.566;2022-09-17T20:44:07;97670.00;;;11.50
15062;BMP180;7630;50.306;8.566;2022-09-17T20:48:08;97671.00;;;11.30
15062;BMP180;7630;50.306;8.566;2022-09-17T20:52:09;97665.00;;;11.70
15062;BMP180;7630;50.306;8.566;2022-09-17T20:56:13;97675.00;;;11.20
15062;BMP180;7630;50.306;8.566;2022-09-17T21:00:14;97685.00;;;10.70
15062;BMP180;7630;50.306;8.566;2022-09-17T21:04:19;97685.00;;;11.40
15062;BMP180;7630;50.306;8.566;2022-09-17T21:08:21;97674.00;;;11.10
15062;BMP180;7630;50.306;8.566;2022-09-17T21:12:22;97676.00;;;11.50
15062;BMP180;7630;50.306;8.566;2022-09-17T21:16:25;97678.00;;;11.10
15062;BMP180;7630;50.306;8.566;2022-09-17T21:20:26;97681.00;;;11.90
15062;BMP180;7630;50.306;8.566;2022-09-17T21:24:27;97674.00;;;11.60
15062;BMP180;7630;50.306;8.566;2022-09-17T21:28:30;97681.00;;;11.20
15062;BMP180;7630;50.306;8.566;2022-09-17T21:32:31;97676.00;;;11.20
15062;BMP180;7630;50.306;8.566;2022-09-17T21:36:34;97677.00;;;11.30
15062;BMP180;7630;50.306;8.566;2022-09-17T21:40:36;97683.00;;;10.80
15062;BMP180;7630;50.306;8.566;2022-09-17T21:44:37;97687.00;;;10.70
15062;BMP180;7630;50.306;8.566;2022-09-17T21:48:46;97694.00;;;10.50
15062;BMP180;7630;50.306;8.566;2022-09-17T21:52:47;97689.00;;;10.80
15062;BMP180;7630;50.306;8.566;2022-09-17T21:56:49;97689.00;;;10.90
15062;BMP180;7630;50.306;8.566;2022-09-17T22:00:50;97692.00;;;11.20
15062;BMP180;7630;50.306;8.566;2022-09-17T22:09:04;97678.00;;;10.60
15062;BMP180;7630;50.306;8.566;2022-09-17T22:13:05;97684.00;;;11.00
15062;BMP180;7630;50.306;8.566;2022-09-17T22:17:06;97685.00;;;10.40
15062;BMP180;7630;50.306;8.566;2022-09-17T22:21:19;97696.00;;;10.90
15062;BMP180;7630;50.306;8.566;2022-09-17T22:25:23;97684.00;;;10.40
15062;BMP180;7630;50.306;8.566;2022-09-17T22:29:25;97683.00;;;10.30
15062;BMP180;7630;50.306;8.566;2022-09-17T22:33:37;97686.00;;;10.90
15062;BMP180;7630;50.306;8.566;2022-09-17T22:37:34;97682.00;;;10.80
15062;BMP180;7630;50.306;8.566;2022-09-17T22:41:37;97680.00;;;10.80
15062;BMP180;7630;50.306;8.566;2022-09-17T22:45:41;97669.00;;;10.90
15062;BMP180;7630;50.306;8.566;2022-09-17T22:49:42;97677.00;;;10.80
15062;BMP180;7630;50.306;8.566;2022-09-17T22:53:44;97675.00;;;10.70
15062;BMP180;7630;50.306;8.566;2022-09-17T22:57:45;97676.00;;;10.80
15062;BMP180;7630;50.306;8.566;2022-09-17T23:01:46;97668.00;;;10.90
15062;BMP180;7630;50.306;8.566;2022-09-17T23:05:48;97675.00;;;10.90
15062;BMP180;7630;50.306;8.566;2022-09-17T23:09:49;97670.00;;;11.00
15062;BMP180;7630;50.306;8.566;2022-09-17T23:13:53;97674.00;;;10.70
15062;BMP180;7630;50.306;8.566;2022-09-17T23:17:57;97682.00;;;11.10
15062;BMP180;7630;50.306;8.566;2022-09-17T23:21:58;97667.00;;;10.80
15062;BMP180;7630;50.306;8.566;2022-09-17T23:26:08;97672.00;;;10.20
15062;BMP180;7630;50.306;8.566;2022-09-17T23:30:10;97684.00;;;10.80
15062;BMP180;7630;50.306;8.566;2022-09-17T23:34:11;97681.00;;;11.40
15062;BMP180;7630;50.306;8.566;2022-09-17T23:38:12;97676.00;;;10.50
15062;BMP180;7630;50.306;8.566;2022-09-17T23:42:14;97683.00;;;10.50
15062;BMP180;7630;50.306;8.566;2022-09-17T23:46:17;97681.00;;;11.00
15062;BMP180;7630;50.306;8.566;2022-09-17T23:50:18;97690.00;;;10.80
15062;BMP180;7630;50.306;8.566;2022-09-17T23:54:19;97681.00;;;11.10
15062;BMP180;7630;50.306;8.566;2022-09-17T23:58:20;97679.00;;;11.00
